createdAt,value
2018-10-19T00:36:18.327Z,6.12
2018-10-19T00:44:44.246Z,5.62
2018-10-19T00:47:23.343Z,5.85
2018-10-19T00:49:58.515Z,6.28
2018-10-19T00:52:34.955Z,5.60
2018-10-19T00:55:10.720Z,5.85
2018-10-19T00:57:51.595Z,6.22
2018-10-19T01:00:36.752Z,6.42
2018-10-19T01:03:14.177Z,5.40
2018-10-19T01:05:44.894Z,5.90
2018-10-19T01:08:23.696Z,6.78
2018-10-19T01:10:58.701Z,5.50
2018-10-19T01:13:42.722Z,5.08
2018-10-19T01:16:25.960Z,5.90
2018-10-19T01:22:01.291Z,5.65
2018-10-19T01:24:32.351Z,6.50
2018-10-19T01:27:01.021Z,5.40
2018-10-19T01:29:32.437Z,6.42
2018-10-19T01:32:02.716Z,6.30
2018-10-19T01:34:32.738Z,6.55
2018-10-19T01:37:04.910Z,5.97
2018-10-19T01:39:35.373Z,6.10
2018-10-19T01:42:05.000Z,6.20
2018-10-19T01:44:34.946Z,6.33
2018-10-19T01:47:04.664Z,5.80
2018-10-19T01:49:34.190Z,6.35
2018-10-19T01:52:04.196Z,6.90
2018-10-19T01:54:35.432Z,6.30
2018-10-19T01:57:06.501Z,5.80
2018-10-19T01:59:36.679Z,6.35
2018-10-19T02:02:07.757Z,6.10
2018-10-19T02:04:39.077Z,6.60
2018-10-19T02:07:09.108Z,5.83
2018-10-19T02:09:41.345Z,8.43
2018-10-19T02:12:14.003Z,8.20
2018-10-19T02:14:48.508Z,7.10
2018-10-19T02:17:26.414Z,6.85
2018-10-19T02:19:59.172Z,5.67
2018-10-19T02:22:29.187Z,6.75
2018-10-19T02:25:11.069Z,7.45
2018-10-19T02:27:54.605Z,6.53
2018-10-19T02:49:11.900Z,7.75
2018-10-19T02:54:48.269Z,7.20
2018-10-19T03:00:35.196Z,6.17
2018-10-19T03:03:13.869Z,5.75
2018-10-19T03:05:54.658Z,7.55
2018-10-19T03:11:57.779Z,6.25
2018-10-19T03:32:53.922Z,7.47
2018-10-19T03:38:34.632Z,7.40
2018-10-19T04:29:03.698Z,6.97
2018-10-19T04:31:37.044Z,6.97
2018-10-19T04:34:07.684Z,8.08
2018-10-19T04:36:50.003Z,7.47
2018-10-19T04:48:48.140Z,7.12
2018-10-19T05:31:17.222Z,9.15
2018-10-19T05:33:55.981Z,8.98
2018-10-19T05:36:32.138Z,8.95
2018-10-19T05:39:01.431Z,8.48
2018-10-19T05:41:31.019Z,9.38
2018-10-19T05:44:00.449Z,8.15
2018-10-19T05:46:28.892Z,8.05
2018-10-19T05:48:58.375Z,8.35
2018-10-19T05:51:26.592Z,8.70
2018-10-19T05:53:54.922Z,9.45
2018-10-19T05:56:23.147Z,8.85
2018-10-19T05:58:51.403Z,8.43
2018-10-19T06:01:19.761Z,9.53
2018-10-19T06:03:48.025Z,8.50
2018-10-19T06:06:16.341Z,10.18
2018-10-19T06:08:44.833Z,10.25
2018-10-19T06:11:13.151Z,9.45
2018-10-19T06:13:41.424Z,10.45
2018-10-19T06:16:09.736Z,10.75
2018-10-19T06:18:40.060Z,9.78
2018-10-19T06:21:17.924Z,9.20
2018-10-19T06:23:46.263Z,10.43
2018-10-19T06:26:14.617Z,10.15
2018-10-19T06:28:42.920Z,9.68
2018-10-19T06:31:11.660Z,10.68
2018-10-19T06:33:39.920Z,9.95
2018-10-19T06:36:08.169Z,10.38
2018-10-19T06:38:38.465Z,10.68
2018-10-19T06:41:06.833Z,10.55
2018-10-19T06:43:35.091Z,11.10
2018-10-19T06:46:03.564Z,10.58
2018-10-19T06:48:32.553Z,10.08
2018-10-19T06:51:14.830Z,11.18
2018-10-19T06:54:02.810Z,11.50
2018-10-19T06:56:31.452Z,13.68
2018-10-19T07:04:48.348Z,13.32
2018-10-19T07:07:25.866Z,11.90
2018-10-19T07:09:57.494Z,12.15
2018-10-19T07:15:37.110Z,11.30
2018-10-19T07:18:08.582Z,12.07
2018-10-19T07:20:37.990Z,11.57
2018-10-19T07:23:07.246Z,10.63
2018-10-19T07:25:36.176Z,13.68
2018-10-19T07:30:54.852Z,11.97
2018-10-19T07:36:27.877Z,12.25
2018-10-19T07:38:58.002Z,10.05
2018-10-19T07:44:29.115Z,11.90
2018-10-19T07:47:29.593Z,9.90
2018-10-19T07:50:18.626Z,10.13
2018-10-19T07:53:28.468Z,10.63
2018-10-19T07:56:08.983Z,10.58
2018-10-19T07:58:47.515Z,10.70
2018-10-19T08:01:31.338Z,10.82
2018-10-19T08:09:37.409Z,10.18
2018-10-19T08:12:27.773Z,11.03
2018-10-19T08:15:02.302Z,9.10
2018-10-19T08:17:42.390Z,10.60
2018-10-19T08:20:21.487Z,10.93
2018-10-19T08:22:59.099Z,10.18
2018-10-19T08:28:07.109Z,8.48
2018-10-19T08:30:42.415Z,8.93
2018-10-19T08:33:16.541Z,8.38
2018-10-19T08:36:07.799Z,7.22
2018-10-19T08:38:36.599Z,7.97
2018-10-19T08:41:07.114Z,8.20
2018-10-19T08:43:55.245Z,7.83
2018-10-19T08:46:36.438Z,8.13
2018-10-19T08:49:27.861Z,6.87
2018-10-19T08:52:08.999Z,6.60
2018-10-19T08:54:45.855Z,7.42
2018-10-19T08:57:16.105Z,7.50
2018-10-19T08:59:46.037Z,6.47
2018-10-19T09:07:02.558Z,7.75
2018-10-19T09:09:42.580Z,6.40
2018-10-19T09:18:27.782Z,7.12
2018-10-19T09:21:11.609Z,7.70
2018-10-19T09:27:27.382Z,7.05
2018-10-19T09:30:07.839Z,7.83
2018-10-19T09:32:40.914Z,8.48
2018-10-19T09:35:10.264Z,8.15
2018-10-19T09:37:38.917Z,6.22
2018-10-19T09:40:10.222Z,5.80
2018-10-19T09:42:40.333Z,6.28
2018-10-19T09:45:10.441Z,5.92
2018-10-19T09:47:39.927Z,6.78
2018-10-19T09:50:08.750Z,7.45
2018-10-19T09:52:39.743Z,5.20
2018-10-19T09:55:09.518Z,5.45
2018-10-19T09:57:38.391Z,4.70
2018-10-19T10:00:14.369Z,4.25
2018-10-19T10:02:43.671Z,4.70
2018-10-19T10:05:13.574Z,4.33
2018-10-19T10:07:52.255Z,2.90
2018-10-19T10:10:35.623Z,3.02
2018-10-19T10:13:04.875Z,2.92
2018-10-19T10:15:35.816Z,2.70
2018-10-19T10:18:06.657Z,3.25
2018-10-19T10:20:36.819Z,3.20
2018-10-19T10:23:06.420Z,4.05
2018-10-19T10:25:37.696Z,2.87
2018-10-19T10:28:06.410Z,3.35
2018-10-19T10:30:37.185Z,2.58
2018-10-19T10:33:09.415Z,2.80
2018-10-19T10:35:48.790Z,2.90
2018-10-19T10:38:23.990Z,2.85
2018-10-19T10:41:06.936Z,2.00
2018-10-19T10:43:37.138Z,2.75
2018-10-19T10:46:07.840Z,3.17
2018-10-19T10:51:24.493Z,2.62
2018-10-19T10:53:53.031Z,4.20
2018-10-19T10:56:21.606Z,2.77
2018-10-19T10:58:50.497Z,3.10
2018-10-19T11:01:18.700Z,2.92
2018-10-19T11:03:47.320Z,2.60
2018-10-19T11:06:15.754Z,2.20
2018-10-19T11:08:44.469Z,2.62
2018-10-19T11:11:13.617Z,2.87
2018-10-19T11:13:42.680Z,2.98
2018-10-19T11:16:12.097Z,2.67
2018-10-19T11:18:40.804Z,3.10
2018-10-19T11:21:09.630Z,2.95
2018-10-19T11:23:38.188Z,2.90
2018-10-19T11:26:07.765Z,2.55
2018-10-19T11:28:36.401Z,3.02
2018-10-19T11:31:05.172Z,2.60
2018-10-19T11:33:33.486Z,3.25
2018-10-19T11:36:01.854Z,2.85
2018-10-19T11:38:30.304Z,2.33
2018-10-19T11:40:58.928Z,2.60
2018-10-19T11:43:27.338Z,2.77
2018-10-19T11:45:55.829Z,2.75
2018-10-19T11:48:24.276Z,2.58
2018-10-19T11:50:52.765Z,3.02
2018-10-19T11:53:21.112Z,3.75
2018-10-19T11:55:49.560Z,3.02
2018-10-19T11:58:18.126Z,2.35
2018-10-19T12:00:46.479Z,2.30
2018-10-19T12:03:15.117Z,2.70
2018-10-19T12:05:43.833Z,2.62
2018-10-19T12:08:12.213Z,2.55
2018-10-19T12:10:40.849Z,3.50
2018-10-19T12:13:09.287Z,2.47
2018-10-19T12:15:37.824Z,1.85
2018-10-19T12:18:06.493Z,2.83
2018-10-19T12:20:36.026Z,3.25
2018-10-19T12:23:04.957Z,3.15
2018-10-19T12:25:33.393Z,3.83
2018-10-19T12:28:02.077Z,2.52
2018-10-19T12:30:30.821Z,3.60
2018-10-19T12:32:59.408Z,2.40
2018-10-19T12:35:27.841Z,2.30
2018-10-19T12:37:56.167Z,2.40
2018-10-19T12:40:24.547Z,2.70
2018-10-19T12:42:53.030Z,2.00
2018-10-19T12:46:39.176Z,2.15
2018-10-19T12:49:07.831Z,2.72
2018-10-19T12:51:36.351Z,2.92
2018-10-19T12:54:05.423Z,2.45
2018-10-19T12:56:33.833Z,3.02
2018-10-19T12:59:02.306Z,2.27
2018-10-19T13:01:31.079Z,2.40
2018-10-19T13:03:59.930Z,1.75
2018-10-19T13:06:28.165Z,2.50
2018-10-19T13:08:56.466Z,2.25
2018-10-19T13:11:24.905Z,1.80
2018-10-19T13:13:53.482Z,2.72
2018-10-19T13:16:21.942Z,2.47
2018-10-19T13:18:50.309Z,1.95
2018-10-19T13:21:19.233Z,1.82
2018-10-19T13:23:47.918Z,2.80
2018-10-19T13:26:16.233Z,2.10
2018-10-19T13:28:44.634Z,2.72
2018-10-19T13:31:13.081Z,2.17
2018-10-19T13:33:41.684Z,2.25
2018-10-19T13:36:10.210Z,2.15
2018-10-19T13:38:38.503Z,2.08
2018-10-19T13:41:07.026Z,2.55
2018-10-19T13:43:35.461Z,2.15
2018-10-19T13:46:03.861Z,2.30
2018-10-19T13:48:32.265Z,2.85
2018-10-19T13:51:00.879Z,2.15
2018-10-19T13:53:29.056Z,1.60
2018-10-19T13:55:57.513Z,1.90
2018-10-19T13:58:25.943Z,2.35
2018-10-19T14:00:54.266Z,2.40
2018-10-19T14:03:22.530Z,1.90
2018-10-19T14:05:50.977Z,2.45
2018-10-19T14:08:19.456Z,2.08
2018-10-19T14:10:47.774Z,1.65
2018-10-19T14:13:16.076Z,1.95
2018-10-19T14:15:44.341Z,2.08
2018-10-19T14:18:12.626Z,1.40
2018-10-19T14:20:40.845Z,2.33
2018-10-19T14:23:09.191Z,1.65
2018-10-19T14:25:37.415Z,1.45
2018-10-19T14:28:06.137Z,1.40
2018-10-19T14:30:34.507Z,1.55
2018-10-19T14:33:02.818Z,1.55
2018-10-19T14:35:31.270Z,2.15
2018-10-19T14:37:59.615Z,1.95
2018-10-19T14:40:27.916Z,1.55
2018-10-19T14:42:56.177Z,1.55
2018-10-19T14:45:24.583Z,1.20
2018-10-19T14:47:52.882Z,1.55
2018-10-19T14:50:21.274Z,2.00
2018-10-19T14:52:49.598Z,1.82
2018-10-19T14:55:18.875Z,1.75
2018-10-19T14:57:47.096Z,1.50
2018-10-19T15:00:16.631Z,2.00
2018-10-19T15:02:45.036Z,1.98
2018-10-19T15:05:15.431Z,1.17
2018-10-19T15:07:44.050Z,1.22
2018-10-19T15:10:14.655Z,1.90
2018-10-19T15:12:43.467Z,1.47
2018-10-19T15:15:13.879Z,1.42
2018-10-19T15:17:42.172Z,1.65
2018-10-19T15:20:10.760Z,1.50
2018-10-19T15:22:39.113Z,1.67
2018-10-19T15:25:08.138Z,1.60
2018-10-19T15:27:36.572Z,1.90
2018-10-19T15:30:05.376Z,1.90
2018-10-19T15:32:33.575Z,1.65
2018-10-19T15:35:01.832Z,1.75
2018-10-19T15:37:30.150Z,1.57
2018-10-19T15:39:58.365Z,1.80
2018-10-19T15:42:26.561Z,1.30
2018-10-19T15:44:54.857Z,1.15
2018-10-19T15:47:25.977Z,1.47
2018-10-19T15:49:55.397Z,1.90
2018-10-19T15:52:23.921Z,2.40
2018-10-19T15:54:52.673Z,1.85
2018-10-19T15:57:21.587Z,2.02
2018-10-19T15:59:50.119Z,2.10
2018-10-19T16:02:18.582Z,1.80
2018-10-19T16:04:47.726Z,1.60
2018-10-19T16:07:16.296Z,1.80
2018-10-19T16:09:44.598Z,2.00
2018-10-19T16:12:13.131Z,1.87
2018-10-19T16:14:41.310Z,1.85
2018-10-19T16:17:09.558Z,1.32
2018-10-19T16:19:37.984Z,2.02
2018-10-19T16:22:06.435Z,1.50
2018-10-19T16:24:34.690Z,2.65
2018-10-19T16:27:03.021Z,2.30
2018-10-19T16:29:31.268Z,2.98
2018-10-19T16:31:59.436Z,2.35
2018-10-19T16:34:27.947Z,2.02
2018-10-19T16:36:56.177Z,2.40
2018-10-19T16:39:24.499Z,2.37
2018-10-19T16:41:52.824Z,2.40
2018-10-19T16:44:21.039Z,2.30
2018-10-19T16:46:49.216Z,2.20
2018-10-19T16:49:17.410Z,1.72
2018-10-19T16:51:45.677Z,2.50
2018-10-19T16:54:13.975Z,2.37
2018-10-19T16:56:42.660Z,2.80
2018-10-19T16:59:10.959Z,2.70
2018-10-19T17:01:39.454Z,3.30
2018-10-19T17:04:08.004Z,2.90
2018-10-19T17:06:36.628Z,3.62
2018-10-19T17:09:09.205Z,2.70
2018-10-19T17:11:37.456Z,3.80
2018-10-19T17:14:05.834Z,3.40
2018-10-19T17:16:35.135Z,3.10
2018-10-19T17:19:03.605Z,3.17
2018-10-19T17:21:37.115Z,2.95
2018-10-19T17:24:06.679Z,3.08
2018-10-19T17:30:08.067Z,3.00
2018-10-19T17:32:51.763Z,3.17
2018-10-19T17:35:40.035Z,4.37
2018-10-19T17:38:52.716Z,3.47
2018-10-19T17:41:21.715Z,3.67
2018-10-19T17:43:51.418Z,3.95
2018-10-19T17:46:19.850Z,4.70
2018-10-19T17:48:48.328Z,5.55
2018-10-19T17:54:10.690Z,4.97
2018-10-19T18:01:48.139Z,4.40
2018-10-19T18:08:41.482Z,4.47
2018-10-19T18:13:59.916Z,4.40
2018-10-19T18:16:45.934Z,4.53
2018-10-19T18:19:26.743Z,5.53
2018-10-19T18:24:14.792Z,4.00
2018-10-19T18:26:49.800Z,4.78
2018-10-19T18:54:00.516Z,5.17
2018-10-19T18:56:31.797Z,5.50
2018-10-19T19:23:09.212Z,4.40
2018-10-19T19:29:25.059Z,4.90
2018-10-19T20:01:40.763Z,4.45
2018-10-19T20:04:20.392Z,5.65
2018-10-19T20:07:17.471Z,5.67
2018-10-19T20:09:51.990Z,6.33
2018-10-19T20:18:37.443Z,8.20
2018-10-19T21:21:24.340Z,7.60
2018-10-19T21:24:21.663Z,8.35
2018-10-19T21:26:57.069Z,7.33
2018-10-19T21:29:26.963Z,7.65
2018-10-19T21:31:55.964Z,7.50
2018-10-19T21:34:24.800Z,8.35
2018-10-19T21:36:53.550Z,6.80
2018-10-19T21:39:21.889Z,7.20
2018-10-19T21:41:50.202Z,6.85
2018-10-19T21:44:18.535Z,8.15
2018-10-19T21:46:46.940Z,8.35
2018-10-19T21:49:16.774Z,7.90
2018-10-19T21:51:45.749Z,7.87
2018-10-19T21:54:25.345Z,7.72
2018-10-19T21:56:57.707Z,7.80
2018-10-19T21:59:27.887Z,9.70
2018-10-19T22:01:57.415Z,8.05
2018-10-19T22:04:30.379Z,8.35
2018-10-19T22:06:59.060Z,9.78
2018-10-19T22:09:28.729Z,9.13
2018-10-19T22:11:59.973Z,8.15
2018-10-19T22:14:29.853Z,8.78
2018-10-19T22:17:00.023Z,8.63
2018-10-19T22:19:28.792Z,9.20
2018-10-19T22:21:59.558Z,9.35
2018-10-19T22:24:27.988Z,8.40
2018-10-19T22:26:57.372Z,10.10
2018-10-19T22:29:26.125Z,9.25
2018-10-19T22:31:56.078Z,10.00
2018-10-19T22:34:28.638Z,9.68
2018-10-19T22:37:02.245Z,9.53
2018-10-19T22:39:31.302Z,10.93
2018-10-19T22:41:59.910Z,10.23
2018-10-19T22:44:28.331Z,10.20
2018-10-19T22:47:02.395Z,10.15
2018-10-19T22:49:31.591Z,9.58
2018-10-19T22:52:00.579Z,9.10
2018-10-19T22:54:28.996Z,9.10
2018-10-19T22:56:58.059Z,8.90
2018-10-19T22:59:26.441Z,9.10
2018-10-19T23:01:56.099Z,8.58
2018-10-19T23:04:46.059Z,9.83
2018-10-19T23:07:15.605Z,8.90
2018-10-19T23:09:53.017Z,10.15
2018-10-19T23:12:24.105Z,9.15
2018-10-19T23:14:53.417Z,9.13
2018-10-19T23:17:23.736Z,8.20
2018-10-19T23:19:55.239Z,9.53
2018-10-19T23:22:24.978Z,8.98
2018-10-19T23:24:53.875Z,8.60
2018-10-19T23:27:22.586Z,9.03
2018-10-19T23:29:52.550Z,9.68
2018-10-19T23:35:26.836Z,9.03
2018-10-19T23:41:57.189Z,8.93
2018-10-19T23:44:33.320Z,9.45
2018-10-19T23:47:06.370Z,8.50
2018-10-19T23:49:36.496Z,8.00
2018-10-19T23:52:08.415Z,8.70
2018-10-19T23:54:38.699Z,10.60
2018-10-19T23:57:09.150Z,9.00
2018-10-19T23:59:38.849Z,9.00
